Time;durP1;ratioP1;P1;durP2;ratioP2;P2;SDS_P1;SDS_P2;PMS_P1;PMS_P2;Temp;Humidity;BMP_temperature;BMP_pressure;BME280_temperature;BME280_humidity;BME280_pressure;Samples;Min_cycle;Max_cycle;Signal;HPM_P1;HPM_P2
2023/04/23 00:01:04;;;;;;;75.23;38.00;;;;;;;;;;763421;182;922975;-60
2023/04/23 00:03:29;;;;;;;75.87;42.00;;;;;;;;;;761840;182;921902;-60
2023/04/23 00:05:55;;;;;;;79.85;41.10;;;;;;;;;;762542;182;904539;-60
2023/04/23 00:08:21;;;;;;;79.37;40.10;;;;;;;;;;762622;182;918105;-60
2023/04/23 00:10:47;;;;;;;85.50;43.33;;;;;;;;;;755048;182;946415;-60
2023/04/23 00:13:14;;;;;;;82.53;40.88;;;;;;;;;;760959;182;945628;-60
2023/04/23 00:15:40;;;;;;;80.63;40.50;;;;;;;;;;766794;182;919209;-60
2023/04/23 00:18:06;;;;;;;87.30;35.43;;;;;;;;;;750105;183;918866;-60
2023/04/23 00:20:33;;;;;;;76.10;39.90;;;;;;;;;;752801;182;918495;-60
2023/04/23 00:22:57;;;;;;;75.93;37.87;;;;;;;;;;761018;182;919393;-60
2023/04/23 00:25:23;;;;;;;73.87;37.10;;;;;;;;;;768025;182;817007;-60
2023/04/23 00:27:49;;;;;;;79.47;37.23;;;;;;;;;;761209;182;815907;-61
2023/04/23 00:30:17;;;;;;;71.83;38.17;;;;;;;;;;762869;182;816247;-60
2023/04/23 00:32:41;;;;;;;65.70;36.57;;;;;;;;;;763785;181;918960;-60
2023/04/23 00:35:07;;;;;;;66.80;34.83;;;;;;;;;;758287;181;919380;-61
2023/04/23 00:37:33;;;;;;;72.43;37.20;;;;;;;;;;766242;181;912223;-60
2023/04/23 00:39:59;;;;;;;53.60;34.33;;;;;;;;;;766689;181;914872;-60
2023/04/23 00:42:25;;;;;;;68.67;34.17;;;;;;;;;;763227;181;896198;-61
2023/04/23 00:44:50;;;;;;;51.73;29.40;;;;;;;;;;765131;182;817118;-59
2023/04/23 00:47:16;;;;;;;61.57;32.17;;;;;;;;;;762502;182;883563;-60
2023/04/23 00:49:42;;;;;;;59.30;33.73;;;;;;;;;;770828;181;893048;-60
2023/04/23 00:52:08;;;;;;;57.43;31.30;;;;;;;;;;762045;180;918501;-60
2023/04/23 00:54:34;;;;;;;57.63;33.00;;;;;;;;;;762017;181;919073;-60
2023/04/23 00:57:00;;;;;;;58.40;33.38;;;;;;;;;;768677;182;919301;-60
2023/04/23 00:59:26;;;;;;;60.07;31.47;;;;;;;;;;765596;182;913348;-60
2023/04/23 01:01:51;;;;;;;63.17;31.85;;;;;;;;;;766673;181;925354;-60
2023/04/23 01:04:17;;;;;;;54.17;34.03;;;;;;;;;;767331;181;913310;-60
2023/04/23 01:06:43;;;;;;;70.03;31.60;;;;;;;;;;762837;182;923284;-59
2023/04/23 01:09:09;;;;;;;57.83;30.03;;;;;;;;;;763009;181;819960;-60
2023/04/23 01:11:35;;;;;;;52.23;30.60;;;;;;;;;;767979;181;726742;-63
2023/04/23 01:14:01;;;;;;;57.07;29.40;;;;;;;;;;762057;182;915946;-60
2023/04/23 01:16:27;;;;;;;59.83;26.43;;;;;;;;;;762672;182;1020313;-60
2023/04/23 01:18:53;;;;;;;46.13;29.77;;;;;;;;;;760070;182;917400;-61
2023/04/23 01:21:18;;;;;;;51.03;28.55;;;;;;;;;;757325;184;919849;-59
2023/04/23 01:23:45;;;;;;;44.40;27.07;;;;;;;;;;760366;181;934579;-60
2023/04/23 01:26:10;;;;;;;47.77;28.33;;;;;;;;;;762117;182;918935;-60
2023/04/23 01:28:36;;;;;;;42.53;26.15;;;;;;;;;;765761;182;910870;-61
2023/04/23 01:31:02;;;;;;;45.43;25.57;;;;;;;;;;762154;182;914048;-60
2023/04/23 01:33:28;;;;;;;38.90;26.30;;;;;;;;;;759499;182;914467;-61
2023/04/23 01:35:54;;;;;;;49.97;26.50;;;;;;;;;;766857;182;843086;-61
2023/04/23 01:38:19;;;;;;;50.40;25.70;;;;;;;;;;763994;182;918883;-61
2023/04/23 01:40:45;;;;;;;41.43;24.77;;;;;;;;;;761420;181;919492;-60
2023/04/23 01:43:11;;;;;;;44.67;25.33;;;;;;;;;;760646;181;919627;-60
2023/04/23 01:45:37;;;;;;;55.33;28.10;;;;;;;;;;771148;181;926340;-60
2023/04/23 01:48:03;;;;;;;39.03;23.37;;;;;;;;;;763311;181;917089;-60
2023/04/23 01:50:29;;;;;;;33.93;22.00;;;;;;;;;;765019;181;919326;-61
2023/04/23 01:52:55;;;;;;;33.63;21.27;;;;;;;;;;769899;181;919186;-61
2023/04/23 01:55:20;;;;;;;33.63;22.87;;;;;;;;;;750743;183;920715;-60
2023/04/23 01:57:46;;;;;;;43.40;22.53;;;;;;;;;;760682;182;929876;-62
2023/04/23 02:00:13;;;;;;;48.00;21.57;;;;;;;;;;766270;181;816410;-61
2023/04/23 02:02:38;;;;;;;32.77;20.77;;;;;;;;;;762529;181;913482;-61
2023/04/23 02:05:05;;;;;;;36.13;20.63;;;;;;;;;;759886;182;920685;-61
2023/04/23 02:07:30;;;;;;;36.15;21.48;;;;;;;;;;762166;181;919839;-61
2023/04/23 02:09:56;;;;;;;37.47;20.23;;;;;;;;;;756034;184;919230;-61
2023/04/23 02:12:22;;;;;;;41.67;22.30;;;;;;;;;;748421;183;917485;-60
2023/04/23 02:14:48;;;;;;;40.40;21.67;;;;;;;;;;726498;187;917669;-61
2023/04/23 02:17:14;;;;;;;33.20;19.40;;;;;;;;;;734590;190;866397;-61
2023/04/23 02:19:39;;;;;;;25.60;17.60;;;;;;;;;;766759;182;919373;-61
2023/04/23 02:22:08;;;;;;;29.50;18.50;;;;;;;;;;761517;181;912669;-61
2023/04/23 02:24:31;;;;;;;32.53;19.00;;;;;;;;;;764824;182;1016170;-60
2023/04/23 02:26:57;;;;;;;28.13;17.83;;;;;;;;;;760255;181;916221;-61
2023/04/23 02:29:23;;;;;;;28.07;17.50;;;;;;;;;;754345;183;919442;-61
2023/04/23 02:31:50;;;;;;;24.30;17.35;;;;;;;;;;761638;182;919051;-61
2023/04/23 02:34:15;;;;;;;28.70;17.67;;;;;;;;;;764815;182;919959;-60
2023/04/23 02:36:41;;;;;;;27.33;17.37;;;;;;;;;;760276;181;918065;-61
2023/04/23 02:39:07;;;;;;;31.90;18.00;;;;;;;;;;761027;181;923062;-61
2023/04/23 02:41:33;;;;;;;23.83;16.77;;;;;;;;;;772046;182;824657;-61
2023/04/23 02:43:59;;;;;;;21.33;16.17;;;;;;;;;;759888;182;919324;-61
2023/04/23 02:46:25;;;;;;;22.67;17.37;;;;;;;;;;761448;182;920317;-61
2023/04/23 02:48:50;;;;;;;26.27;18.13;;;;;;;;;;768292;182;839671;-61
2023/04/23 02:51:16;;;;;;;16.62;14.38;;;;;;;;;;763027;182;886682;-60
2023/04/23 02:53:42;;;;;;;23.47;16.87;;;;;;;;;;762872;182;921033;-60
2023/04/23 02:56:08;;;;;;;16.17;13.33;;;;;;;;;;768899;181;817952;-61
2023/04/23 02:58:34;;;;;;;22.70;18.33;;;;;;;;;;763885;182;895469;-61
2023/04/23 03:01:00;;;;;;;25.47;17.43;;;;;;;;;;755546;182;920217;-61
2023/04/23 03:03:26;;;;;;;17.87;14.77;;;;;;;;;;757532;182;918881;-61
2023/04/23 03:05:51;;;;;;;23.50;16.90;;;;;;;;;;769301;182;918380;-60
2023/04/23 03:08:17;;;;;;;25.53;16.47;;;;;;;;;;762477;182;919404;-60
2023/04/23 03:10:43;;;;;;;19.80;14.73;;;;;;;;;;766040;182;749784;-61
2023/04/23 03:13:09;;;;;;;23.13;14.37;;;;;;;;;;764652;182;920057;-60
2023/04/23 03:15:35;;;;;;;22.60;14.20;;;;;;;;;;761864;182;911023;-65
2023/04/23 03:18:01;;;;;;;21.43;14.70;;;;;;;;;;761307;182;915677;-61
2023/04/23 03:20:26;;;;;;;22.87;15.52;;;;;;;;;;767748;182;918486;-60
2023/04/23 03:22:52;;;;;;;24.53;15.53;;;;;;;;;;759939;182;916141;-60
2023/04/23 03:25:19;;;;;;;24.20;14.63;;;;;;;;;;764045;180;817663;-61
2023/04/23 03:27:44;;;;;;;22.60;15.43;;;;;;;;;;762872;182;854576;-61
2023/04/23 03:30:10;;;;;;;17.40;14.40;;;;;;;;;;757481;184;820382;-60
2023/04/23 03:32:36;;;;;;;20.73;15.07;;;;;;;;;;763739;182;920782;-60
2023/04/23 03:35:02;;;;;;;20.47;14.67;;;;;;;;;;763971;182;919475;-61
2023/04/23 03:37:28;;;;;;;16.53;13.53;;;;;;;;;;767088;181;862596;-60
2023/04/23 03:39:54;;;;;;;19.93;14.20;;;;;;;;;;762809;181;902101;-60
2023/04/23 03:42:19;;;;;;;20.40;12.65;;;;;;;;;;760755;182;917464;-60
2023/04/23 03:44:45;;;;;;;18.10;13.20;;;;;;;;;;764821;183;920640;-60
2023/04/23 03:47:11;;;;;;;19.03;13.77;;;;;;;;;;765874;182;918104;-60
2023/04/23 03:49:37;;;;;;;14.63;12.25;;;;;;;;;;760828;182;921892;-61
2023/04/23 03:52:03;;;;;;;17.93;13.87;;;;;;;;;;764604;182;919422;-60
2023/04/23 03:54:29;;;;;;;21.63;12.10;;;;;;;;;;758655;182;926375;-60
2023/04/23 03:56:56;;;;;;;16.53;13.00;;;;;;;;;;760822;179;921841;-60
2023/04/23 03:59:21;;;;;;;18.83;13.47;;;;;;;;;;758879;182;865185;-60
2023/04/23 04:01:47;;;;;;;19.60;13.37;;;;;;;;;;755124;183;919622;-60
2023/04/23 04:04:13;;;;;;;14.63;11.63;;;;;;;;;;762616;182;920163;-60
2023/04/23 04:06:39;;;;;;;15.43;12.50;;;;;;;;;;762740;181;917975;-60
2023/04/23 04:09:06;;;;;;;17.50;12.57;;;;;;;;;;758536;182;921891;-60
2023/04/23 04:11:31;;;;;;;20.33;14.17;;;;;;;;;;761940;182;818851;-60
2023/04/23 04:13:56;;;;;;;22.73;14.80;;;;;;;;;;766882;182;821996;-60
2023/04/23 04:16:22;;;;;;;17.70;12.73;;;;;;;;;;762434;182;920220;-60
2023/04/23 04:18:48;;;;;;;19.77;14.57;;;;;;;;;;768683;181;919706;-60
2023/04/23 04:21:16;;;;;;;15.73;11.77;;;;;;;;;;762867;181;921326;-60
2023/04/23 04:23:40;;;;;;;18.27;13.73;;;;;;;;;;765344;179;819092;-60
2023/04/23 04:26:07;;;;;;;19.77;13.60;;;;;;;;;;766055;182;919027;-60
2023/04/23 04:28:35;;;;;;;24.20;14.60;;;;;;;;;;764168;181;921219;-60
2023/04/23 04:30:59;;;;;;;17.80;13.90;;;;;;;;;;763337;182;810847;-60
2023/04/23 04:33:24;;;;;;;15.23;12.10;;;;;;;;;;767514;182;816651;-59
2023/04/23 04:35:49;;;;;;;15.57;12.77;;;;;;;;;;764954;182;919123;-60
2023/04/23 04:38:15;;;;;;;16.80;14.38;;;;;;;;;;748356;186;920032;-60
2023/04/23 04:40:41;;;;;;;18.77;14.53;;;;;;;;;;765244;182;917260;-59
2023/04/23 04:43:07;;;;;;;21.63;15.70;;;;;;;;;;758747;180;918145;-59
2023/04/23 04:45:33;;;;;;;18.73;13.60;;;;;;;;;;751222;183;918417;-59
2023/04/23 04:47:58;;;;;;;21.00;14.30;;;;;;;;;;763245;182;900048;-60
2023/04/23 04:50:24;;;;;;;20.20;14.43;;;;;;;;;;767221;182;857712;-59
2023/04/23 04:52:50;;;;;;;19.40;15.37;;;;;;;;;;758246;182;940147;-59
2023/04/23 04:55:16;;;;;;;19.23;14.57;;;;;;;;;;761977;182;849107;-60
2023/04/23 04:57:42;;;;;;;19.10;13.20;;;;;;;;;;767656;182;922311;-60
2023/04/23 05:00:13;;;;;;;14.77;11.60;;;;;;;;;;748022;184;919870;-59
2023/04/23 05:02:39;;;;;;;20.33;11.90;;;;;;;;;;761848;182;919074;-59
2023/04/23 05:05:06;;;;;;;19.13;12.60;;;;;;;;;;760507;182;919107;-60
2023/04/23 05:07:31;;;;;;;16.50;11.63;;;;;;;;;;766872;181;921822;-59
2023/04/23 05:09:57;;;;;;;17.70;11.33;;;;;;;;;;761903;182;918402;-59
2023/04/23 05:12:23;;;;;;;14.33;11.20;;;;;;;;;;762066;182;919311;-59
2023/04/23 05:14:49;;;;;;;14.83;10.80;;;;;;;;;;768057;181;740563;-59
2023/04/23 05:17:15;;;;;;;21.23;11.23;;;;;;;;;;748497;186;941295;-60
2023/04/23 05:19:40;;;;;;;18.17;12.68;;;;;;;;;;761468;181;918503;-59
2023/04/23 05:22:06;;;;;;;13.50;11.47;;;;;;;;;;767912;181;918701;-59
2023/04/23 05:24:32;;;;;;;12.77;10.63;;;;;;;;;;762816;181;859592;-59
2023/04/23 05:26:58;;;;;;;12.33;10.57;;;;;;;;;;766515;182;920542;-59
2023/04/23 05:29:24;;;;;;;14.73;10.70;;;;;;;;;;750585;186;918760;-59
2023/04/23 05:31:50;;;;;;;12.50;9.87;;;;;;;;;;757540;183;918789;-60
2023/04/23 05:34:16;;;;;;;12.60;10.43;;;;;;;;;;760687;182;922301;-59
2023/04/23 05:36:41;;;;;;;13.40;9.00;;;;;;;;;;764399;182;913644;-59
2023/04/23 05:39:08;;;;;;;13.30;8.75;;;;;;;;;;768563;182;846666;-59
2023/04/23 05:41:33;;;;;;;12.80;8.57;;;;;;;;;;762544;182;917212;-59
2023/04/23 05:43:59;;;;;;;11.73;8.47;;;;;;;;;;760736;182;924529;-60
2023/04/23 05:46:25;;;;;;;10.87;7.87;;;;;;;;;;766914;181;919267;-60
2023/04/23 05:48:51;;;;;;;9.90;7.90;;;;;;;;;;763009;182;918772;-60
2023/04/23 05:51:16;;;;;;;14.23;8.73;;;;;;;;;;762051;181;919846;-59
2023/04/23 05:53:42;;;;;;;9.77;7.97;;;;;;;;;;766795;182;919665;-61
2023/04/23 05:56:08;;;;;;;10.80;7.93;;;;;;;;;;760363;182;919936;-60
2023/04/23 05:58:34;;;;;;;9.60;8.43;;;;;;;;;;762485;182;921769;-59
2023/04/23 06:01:00;;;;;;;9.17;7.50;;;;;;;;;;762260;182;923608;-60
2023/04/23 06:03:26;;;;;;;12.17;7.70;;;;;;;;;;768717;182;821064;-59
2023/04/23 06:05:52;;;;;;;14.87;7.80;;;;;;;;;;755174;183;857989;-59
2023/04/23 06:08:19;;;;;;;20.90;8.90;;;;;;;;;;761234;182;912781;-59
2023/04/23 06:10:43;;;;;;;10.10;9.03;;;;;;;;;;767596;181;921180;-60
2023/04/23 06:13:09;;;;;;;11.80;8.57;;;;;;;;;;762419;182;918942;-60
2023/04/23 06:15:35;;;;;;;10.07;7.90;;;;;;;;;;769271;182;621290;-59
2023/04/23 06:18:01;;;;;;;9.13;7.22;;;;;;;;;;768738;182;851477;-60
2023/04/23 06:20:27;;;;;;;9.90;7.80;;;;;;;;;;765450;182;817368;-61
2023/04/23 06:22:52;;;;;;;9.97;7.37;;;;;;;;;;763486;182;817068;-59
2023/04/23 06:25:18;;;;;;;10.40;7.63;;;;;;;;;;762699;182;913955;-60
2023/04/23 06:27:44;;;;;;;11.50;8.27;;;;;;;;;;767514;182;622845;-60
2023/04/23 06:30:10;;;;;;;13.20;7.37;;;;;;;;;;768119;180;799700;-59
2023/04/23 06:32:36;;;;;;;9.83;7.40;;;;;;;;;;766716;182;639531;-60
2023/04/23 06:35:03;;;;;;;12.10;7.47;;;;;;;;;;771304;181;619207;-60
2023/04/23 06:37:29;;;;;;;10.93;7.60;;;;;;;;;;766961;181;637517;-60
2023/04/23 06:39:53;;;;;;;9.80;6.90;;;;;;;;;;766966;181;620196;-61
2023/04/23 06:42:19;;;;;;;10.90;7.00;;;;;;;;;;768347;182;620151;-60
2023/04/23 06:44:46;;;;;;;8.73;6.67;;;;;;;;;;768625;181;629482;-60
2023/04/23 06:47:11;;;;;;;10.60;6.60;;;;;;;;;;755782;186;643603;-60
2023/04/23 06:49:37;;;;;;;8.10;5.93;;;;;;;;;;763304;182;633228;-61
2023/04/23 06:52:03;;;;;;;9.53;7.20;;;;;;;;;;766901;182;841315;-60
2023/04/23 06:54:29;;;;;;;13.27;7.77;;;;;;;;;;767232;180;908657;-60
2023/04/23 06:56:56;;;;;;;8.73;6.33;;;;;;;;;;764678;181;914153;-60
2023/04/23 06:59:20;;;;;;;8.23;6.17;;;;;;;;;;769400;180;919208;-61
2023/04/23 07:01:46;;;;;;;8.00;5.97;;;;;;;;;;762339;182;918441;-61
2023/04/23 07:04:12;;;;;;;7.80;6.10;;;;;;;;;;761012;182;822416;-61
2023/04/23 07:06:38;;;;;;;11.63;5.77;;;;;;;;;;769060;182;820494;-61
2023/04/23 07:09:04;;;;;;;15.67;5.70;;;;;;;;;;767648;181;918626;-60
2023/04/23 07:11:33;;;;;;;10.17;5.57;;;;;;;;;;762572;182;817332;-60
2023/04/23 07:13:55;;;;;;;7.97;5.70;;;;;;;;;;764835;182;943151;-61
2023/04/23 07:16:22;;;;;;;8.57;5.43;;;;;;;;;;762626;181;914424;-61
2023/04/23 07:18:47;;;;;;;7.80;5.77;;;;;;;;;;760674;182;919387;-62
2023/04/23 07:21:13;;;;;;;9.00;5.37;;;;;;;;;;761625;182;919259;-61
2023/04/23 07:23:39;;;;;;;8.77;5.40;;;;;;;;;;768554;182;825400;-61
2023/04/23 07:26:04;;;;;;;8.30;5.37;;;;;;;;;;762029;181;925188;-60
2023/04/23 07:28:31;;;;;;;5.97;4.60;;;;;;;;;;760432;182;919387;-62
2023/04/23 07:30:56;;;;;;;10.37;5.00;;;;;;;;;;765758;181;921206;-62
2023/04/23 07:33:22;;;;;;;13.23;5.70;;;;;;;;;;761368;182;906064;-62
2023/04/23 07:35:48;;;;;;;10.30;4.80;;;;;;;;;;762174;182;918124;-60
2023/04/23 07:38:14;;;;;;;7.33;4.70;;;;;;;;;;763937;182;916931;-62
2023/04/23 07:40:40;;;;;;;9.80;5.00;;;;;;;;;;760458;182;933796;-62
2023/04/23 07:43:05;;;;;;;7.60;4.90;;;;;;;;;;763834;180;857455;-60
2023/04/23 07:45:31;;;;;;;7.20;4.63;;;;;;;;;;761119;182;922349;-60
2023/04/23 07:47:58;;;;;;;7.45;4.75;;;;;;;;;;762863;182;925122;-61
2023/04/23 07:50:23;;;;;;;6.10;4.70;;;;;;;;;;761852;181;838409;-63
2023/04/23 07:52:49;;;;;;;7.13;4.93;;;;;;;;;;762614;182;919773;-61
2023/04/23 07:55:15;;;;;;;7.23;5.17;;;;;;;;;;768312;182;816408;-60
2023/04/23 07:57:40;;;;;;;6.43;4.20;;;;;;;;;;763632;182;897346;-61
2023/04/23 08:00:08;;;;;;;14.87;5.27;;;;;;;;;;761954;182;905987;-63
2023/04/23 08:02:33;;;;;;;8.77;6.10;;;;;;;;;;766148;181;912356;-61
2023/04/23 08:04:59;;;;;;;8.20;5.27;;;;;;;;;;762759;181;818629;-62
2023/04/23 08:07:25;;;;;;;7.50;5.70;;;;;;;;;;761483;182;919375;-63
2023/04/23 08:09:51;;;;;;;6.97;5.20;;;;;;;;;;760139;182;835726;-63
2023/04/23 08:12:17;;;;;;;7.67;4.80;;;;;;;;;;766033;182;814909;-63
2023/04/23 08:14:43;;;;;;;12.33;5.03;;;;;;;;;;764427;182;915275;-60
2023/04/23 08:17:08;;;;;;;13.50;5.37;;;;;;;;;;758865;182;918356;-61
2023/04/23 08:19:34;;;;;;;7.47;5.03;;;;;;;;;;770260;182;812299;-62
2023/04/23 08:22:00;;;;;;;8.40;4.63;;;;;;;;;;763243;182;919278;-61
2023/04/23 08:24:26;;;;;;;7.17;4.97;;;;;;;;;;764771;182;921754;-61
2023/04/23 08:26:52;;;;;;;8.90;5.20;;;;;;;;;;765299;182;920297;-58
2023/04/23 08:29:18;;;;;;;7.37;5.07;;;;;;;;;;759630;182;919129;-58
2023/04/23 08:31:43;;;;;;;6.00;4.30;;;;;;;;;;754191;179;925535;-62
2023/04/23 08:34:09;;;;;;;7.03;4.53;;;;;;;;;;759924;182;817173;-58
2023/04/23 08:36:35;;;;;;;7.20;5.60;;;;;;;;;;763518;182;913923;-58
2023/04/23 08:39:02;;;;;;;8.00;4.60;;;;;;;;;;762335;181;817953;-60
2023/04/23 08:41:27;;;;;;;7.03;4.87;;;;;;;;;;762906;182;917769;-60
2023/04/23 08:43:56;;;;;;;7.13;4.40;;;;;;;;;;765006;182;918471;-60
2023/04/23 08:46:21;;;;;;;11.23;4.47;;;;;;;;;;760756;181;865216;-58
2023/04/23 08:48:47;;;;;;;6.07;3.90;;;;;;;;;;762306;182;893468;-58
2023/04/23 08:51:13;;;;;;;6.10;4.23;;;;;;;;;;767404;182;919727;-61
2023/04/23 08:53:39;;;;;;;5.30;4.00;;;;;;;;;;762182;181;917479;-61
2023/04/23 08:56:05;;;;;;;5.60;3.83;;;;;;;;;;763899;182;851135;-58
2023/04/23 08:58:31;;;;;;;6.72;4.32;;;;;;;;;;768323;182;919035;-59
2023/04/23 09:00:57;;;;;;;5.37;3.73;;;;;;;;;;765253;181;919041;-61
2023/04/23 09:03:24;;;;;;;6.03;4.23;;;;;;;;;;763226;181;919332;-58
2023/04/23 09:05:50;;;;;;;8.70;4.60;;;;;;;;;;757717;180;864819;-58
2023/04/23 09:08:15;;;;;;;7.47;4.77;;;;;;;;;;758511;182;918705;-60
2023/04/23 09:10:41;;;;;;;6.73;4.90;;;;;;;;;;765773;182;920893;-59
2023/04/23 09:13:07;;;;;;;5.07;3.70;;;;;;;;;;750572;186;920209;-59
2023/04/23 09:15:37;;;;;;;6.80;4.80;;;;;;;;;;767511;181;920035;-58
2023/04/23 09:17:59;;;;;;;6.43;3.77;;;;;;;;;;764329;182;814409;-60
2023/04/23 09:20:25;;;;;;;10.87;4.20;;;;;;;;;;762624;182;930433;-61
2023/04/23 09:22:51;;;;;;;8.63;4.27;;;;;;;;;;765272;182;801619;-58
2023/04/23 09:25:16;;;;;;;5.67;3.87;;;;;;;;;;761782;182;851405;-58
2023/04/23 09:27:42;;;;;;;6.63;4.40;;;;;;;;;;760752;182;817075;-58
2023/04/23 09:30:09;;;;;;;5.93;3.80;;;;;;;;;;760762;182;817158;-59
2023/04/23 09:32:34;;;;;;;9.03;4.47;;;;;;;;;;767777;182;921578;-61
2023/04/23 09:35:02;;;;;;;6.07;4.50;;;;;;;;;;763447;181;924038;-58
2023/04/23 09:37:28;;;;;;;9.53;4.47;;;;;;;;;;765861;182;822027;-58
2023/04/23 09:39:55;;;;;;;5.50;4.43;;;;;;;;;;766493;181;919893;-58
2023/04/23 09:42:19;;;;;;;5.47;4.13;;;;;;;;;;761360;182;915838;-58
2023/04/23 09:44:45;;;;;;;8.27;3.70;;;;;;;;;;764072;182;910367;-58
2023/04/23 09:47:13;;;;;;;6.13;4.50;;;;;;;;;;765793;182;920858;-62
2023/04/23 09:49:43;;;;;;;9.23;3.87;;;;;;;;;;759586;182;822399;-59
2023/04/23 09:52:09;;;;;;;4.80;3.23;;;;;;;;;;763461;180;914321;-59
2023/04/23 09:54:35;;;;;;;8.23;3.97;;;;;;;;;;756704;182;912178;-62
2023/04/23 09:57:01;;;;;;;7.20;4.30;;;;;;;;;;754907;183;918874;-62
2023/04/23 09:59:26;;;;;;;7.63;4.37;;;;;;;;;;761099;182;919431;-59
2023/04/23 10:01:52;;;;;;;5.90;4.17;;;;;;;;;;761201;182;923306;-59
2023/04/23 10:04:18;;;;;;;5.70;3.40;;;;;;;;;;767160;181;920747;-59
2023/04/23 10:06:44;;;;;;;4.70;3.47;;;;;;;;;;763288;181;920710;-59
2023/04/23 10:09:09;;;;;;;7.37;4.47;;;;;;;;;;765569;180;868546;-58
2023/04/23 10:11:35;;;;;;;5.17;3.90;;;;;;;;;;761888;182;918272;-61
2023/04/23 10:14:01;;;;;;;6.40;4.57;;;;;;;;;;767570;181;816121;-61
2023/04/23 10:16:27;;;;;;;6.50;4.60;;;;;;;;;;763828;181;919034;-62
2023/04/23 10:18:54;;;;;;;8.97;4.40;;;;;;;;;;764466;181;917912;-60
2023/04/23 10:21:19;;;;;;;9.13;4.33;;;;;;;;;;769099;182;921438;-61
2023/04/23 10:23:44;;;;;;;4.80;4.10;;;;;;;;;;763129;182;905049;-61
2023/04/23 10:26:10;;;;;;;6.00;4.47;;;;;;;;;;750676;186;889049;-59
2023/04/23 10:28:36;;;;;;;5.20;4.17;;;;;;;;;;767882;182;916850;-59
2023/04/23 10:31:02;;;;;;;6.33;4.13;;;;;;;;;;763823;180;919473;-61
2023/04/23 10:33:28;;;;;;;7.40;4.40;;;;;;;;;;748455;184;925112;-58
2023/04/23 10:35:54;;;;;;;6.53;4.33;;;;;;;;;;757261;182;1021163;-61
2023/04/23 10:38:21;;;;;;;8.20;4.67;;;;;;;;;;767395;181;919999;-61
2023/04/23 10:40:45;;;;;;;5.13;3.80;;;;;;;;;;768292;180;814584;-58
2023/04/23 10:43:11;;;;;;;7.57;4.73;;;;;;;;;;759860;182;849256;-62
2023/04/23 10:45:37;;;;;;;5.73;4.30;;;;;;;;;;765733;182;1123493;-62
2023/04/23 10:48:03;;;;;;;9.00;4.40;;;;;;;;;;762729;182;919481;-61
2023/04/23 10:50:29;;;;;;;5.93;4.17;;;;;;;;;;765437;182;819099;-59
2023/04/23 10:52:56;;;;;;;6.17;3.60;;;;;;;;;;768221;182;818605;-59
2023/04/23 10:55:21;;;;;;;8.17;4.00;;;;;;;;;;761035;182;923187;-61
2023/04/23 10:57:57;;;;;;;4.27;3.60;;;;;;;;;;754913;183;919477;-61
2023/04/23 11:00:23;;;;;;;6.33;3.60;;;;;;;;;;759298;182;817381;-59
2023/04/23 11:02:49;;;;;;;7.00;4.17;;;;;;;;;;768187;182;850873;-62
2023/04/23 11:05:16;;;;;;;5.80;4.00;;;;;;;;;;762710;182;895602;-59
2023/04/23 11:07:41;;;;;;;8.50;4.83;;;;;;;;;;760130;182;913445;-59
2023/04/23 11:10:09;;;;;;;6.37;4.20;;;;;;;;;;764454;182;803630;-59
2023/04/23 11:12:35;;;;;;;6.77;4.07;;;;;;;;;;767329;181;918642;-62
2023/04/23 11:15:07;;;;;;;6.00;3.60;;;;;;;;;;762660;181;919679;-60
2023/04/23 11:17:48;;;;;;;9.53;4.70;;;;;;;;;;769805;180;628177;-60
2023/04/23 11:20:14;;;;;;;5.63;4.00;;;;;;;;;;762029;181;918609;-63
2023/04/23 11:22:39;;;;;;;7.50;4.17;;;;;;;;;;767060;182;868942;-63
2023/04/23 11:25:08;;;;;;;9.20;5.03;;;;;;;;;;766752;181;818731;-60
2023/04/23 11:27:34;;;;;;;4.43;3.30;;;;;;;;;;768615;182;637356;-63
2023/04/23 11:30:00;;;;;;;11.57;4.10;;;;;;;;;;766842;182;639064;-60
2023/04/23 11:32:26;;;;;;;6.60;4.37;;;;;;;;;;769070;182;815675;-63
2023/04/23 11:34:52;;;;;;;7.83;4.40;;;;;;;;;;759026;182;916529;-62
2023/04/23 11:37:17;;;;;;;7.57;4.60;;;;;;;;;;760273;182;918899;-63
2023/04/23 11:39:43;;;;;;;5.70;3.93;;;;;;;;;;770383;181;825160;-60
2023/04/23 11:42:10;;;;;;;6.00;3.97;;;;;;;;;;762514;182;920456;-63
2023/04/23 11:44:39;;;;;;;7.87;4.40;;;;;;;;;;763734;181;854874;-60
2023/04/23 11:47:05;;;;;;;6.97;4.57;;;;;;;;;;765372;182;916802;-60
2023/04/23 11:49:31;;;;;;;5.20;4.33;;;;;;;;;;760800;182;919091;-62
2023/04/23 11:51:57;;;;;;;7.80;5.03;;;;;;;;;;761863;182;818542;-63
2023/04/23 11:54:26;;;;;;;5.80;4.10;;;;;;;;;;761886;182;918760;-60
2023/04/23 11:56:50;;;;;;;6.53;4.43;;;;;;;;;;765369;182;850231;-60
2023/04/23 11:59:16;;;;;;;9.90;4.30;;;;;;;;;;765803;182;886752;-61
2023/04/23 12:01:45;;;;;;;6.40;4.33;;;;;;;;;;763207;182;918185;-60
2023/04/23 12:04:11;;;;;;;6.37;4.63;;;;;;;;;;767050;182;917171;-59
2023/04/23 12:06:37;;;;;;;5.70;4.50;;;;;;;;;;763125;181;911906;-60
2023/04/23 12:09:03;;;;;;;7.03;4.57;;;;;;;;;;761946;182;912149;-60
2023/04/23 12:11:28;;;;;;;6.43;3.70;;;;;;;;;;761901;182;920004;-60
2023/04/23 12:13:54;;;;;;;8.73;4.30;;;;;;;;;;767136;182;812958;-61
2023/04/23 12:16:20;;;;;;;9.13;5.73;;;;;;;;;;760160;182;1123543;-62
2023/04/23 12:18:46;;;;;;;8.97;4.13;;;;;;;;;;759858;182;919419;-62
2023/04/23 12:21:12;;;;;;;7.70;3.77;;;;;;;;;;766138;182;920948;-62
2023/04/23 12:23:38;;;;;;;8.50;3.90;;;;;;;;;;757418;182;920879;-62
2023/04/23 12:26:05;;;;;;;6.07;3.93;;;;;;;;;;764890;182;823874;-61
2023/04/23 12:28:30;;;;;;;7.53;4.90;;;;;;;;;;766836;181;918456;-62
2023/04/23 12:30:58;;;;;;;7.80;4.93;;;;;;;;;;766948;182;914270;-61
2023/04/23 12:33:24;;;;;;;5.17;4.30;;;;;;;;;;767230;182;842712;-61
2023/04/23 12:35:50;;;;;;;7.23;4.53;;;;;;;;;;761710;182;918019;-60
2023/04/23 12:38:21;;;;;;;10.40;4.75;;;;;;;;;;767791;181;818140;-61
2023/04/23 12:40:45;;;;;;;8.13;5.23;;;;;;;;;;766028;182;916325;-61
2023/04/23 12:43:11;;;;;;;10.73;4.40;;;;;;;;;;763544;181;911607;-62
2023/04/23 12:45:37;;;;;;;6.80;4.30;;;;;;;;;;767917;182;813538;-60
2023/04/23 12:48:03;;;;;;;5.87;4.20;;;;;;;;;;763010;182;915823;-62
2023/04/23 12:50:29;;;;;;;6.40;4.60;;;;;;;;;;761583;182;917958;-61
2023/04/23 12:52:55;;;;;;;9.77;4.90;;;;;;;;;;762842;181;912834;-62
2023/04/23 12:55:20;;;;;;;5.77;4.30;;;;;;;;;;762358;182;919278;-60
2023/04/23 12:57:46;;;;;;;6.23;4.63;;;;;;;;;;766718;181;942620;-62
2023/04/23 13:00:12;;;;;;;8.02;4.47;;;;;;;;;;762396;181;875484;-62
2023/04/23 13:02:38;;;;;;;6.27;4.90;;;;;;;;;;767916;182;919556;-60
2023/04/23 13:05:04;;;;;;;6.30;4.87;;;;;;;;;;760327;182;919293;-62
2023/04/23 13:07:30;;;;;;;7.60;4.60;;;;;;;;;;761694;182;921769;-62
2023/04/23 13:09:58;;;;;;;8.73;5.27;;;;;;;;;;767501;182;919047;-61
2023/04/23 13:12:22;;;;;;;7.70;4.90;;;;;;;;;;764706;182;818814;-60
2023/04/23 13:14:48;;;;;;;7.07;4.40;;;;;;;;;;749295;186;920114;-62
2023/04/23 13:17:14;;;;;;;8.38;5.60;;;;;;;;;;766130;182;916189;-61
2023/04/23 13:19:40;;;;;;;8.50;5.03;;;;;;;;;;762618;182;917294;-62
2023/04/23 13:22:06;;;;;;;13.27;5.00;;;;;;;;;;759585;182;919582;-60
2023/04/23 13:24:32;;;;;;;5.20;4.53;;;;;;;;;;751671;183;941384;-60
2023/04/23 13:26:58;;;;;;;11.30;4.60;;;;;;;;;;766344;182;874527;-62
2023/04/23 13:29:26;;;;;;;6.87;4.70;;;;;;;;;;761329;182;914838;-61
2023/04/23 13:31:50;;;;;;;5.83;4.90;;;;;;;;;;761668;182;917732;-62
2023/04/23 13:34:15;;;;;;;8.50;5.00;;;;;;;;;;768289;182;917908;-60
2023/04/23 13:36:41;;;;;;;8.38;4.80;;;;;;;;;;763278;182;919201;-61
2023/04/23 13:39:07;;;;;;;6.20;4.90;;;;;;;;;;761274;181;953849;-60
2023/04/23 13:41:33;;;;;;;6.57;4.80;;;;;;;;;;767127;182;918659;-61
2023/04/23 13:43:58;;;;;;;5.63;4.70;;;;;;;;;;752546;182;919327;-62
2023/04/23 13:46:24;;;;;;;6.90;4.80;;;;;;;;;;755544;182;919426;-62
2023/04/23 13:48:50;;;;;;;7.67;5.10;;;;;;;;;;763370;180;922026;-62
2023/04/23 13:51:16;;;;;;;9.03;4.10;;;;;;;;;;769291;181;826294;-62
2023/04/23 13:53:42;;;;;;;7.80;4.10;;;;;;;;;;762581;181;915644;-61
2023/04/23 13:56:09;;;;;;;6.47;5.20;;;;;;;;;;763083;182;913319;-60
2023/04/23 13:58:34;;;;;;;6.83;4.73;;;;;;;;;;766988;182;914019;-60
2023/04/23 14:01:00;;;;;;;6.30;4.80;;;;;;;;;;764433;182;913394;-60
2023/04/23 14:03:26;;;;;;;8.40;4.80;;;;;;;;;;762824;181;917134;-60
2023/04/23 14:05:54;;;;;;;5.30;4.40;;;;;;;;;;767506;181;933745;-60
2023/04/23 14:08:20;;;;;;;5.23;4.10;;;;;;;;;;762951;181;924111;-60
2023/04/23 14:10:46;;;;;;;6.57;4.93;;;;;;;;;;762384;182;814158;-63